Time;durP1;ratioP1;P1;durP2;ratioP2;P2;SDS_P1;SDS_P2;PMS_P1;PMS_P2;Temp;Humidity;BMP_temperature;BMP_pressure;BME280_temperature;BME280_humidity;BME280_pressure;Samples;Min_cycle;Max_cycle;Signal;HPM_P1;HPM_P2
2023/12/05 00:01:38;;;;;;;9.45;5.57;;;;;;;3.83;80.76;100464.94;5115922;27;20031;-39
2023/12/05 00:04:03;;;;;;;9.48;5.65;;;;;;;3.88;81.08;100460.09;5134621;27;20020;-37
2023/12/05 00:06:29;;;;;;;9.95;5.45;;;;;;;4.11;80.14;100460.56;5134569;27;20066;-39
2023/12/05 00:08:54;;;;;;;7.50;4.85;;;;;;;3.77;80.50;100459.41;5134329;27;20020;-39
2023/12/05 00:11:20;;;;;;;8.85;5.05;;;;;;;3.45;80.32;100442.97;5134306;27;20110;-37
2023/12/05 00:13:45;;;;;;;8.43;5.38;;;;;;;3.79;79.92;100470.63;5134414;27;20072;-39
2023/12/05 00:16:10;;;;;;;9.55;5.40;;;;;;;3.95;78.95;100465.59;5134059;27;20391;-39
2023/12/05 00:18:37;;;;;;;11.00;5.55;;;;;;;3.80;80.02;100473.13;5134189;27;20059;-38
2023/12/05 00:21:03;;;;;;;10.18;5.30;;;;;;;3.74;79.69;100463.16;5134164;27;20019;-39
2023/12/05 00:23:29;;;;;;;8.88;5.18;;;;;;;4.05;79.71;100458.50;5134006;27;20059;-38
2023/12/05 00:25:54;;;;;;;8.65;5.47;;;;;;;3.96;80.04;100482.22;5133955;27;20042;-37
2023/12/05 00:28:19;;;;;;;8.88;5.38;;;;;;;3.95;80.09;100478.78;5133835;27;20050;-38
2023/12/05 00:30:45;;;;;;;7.47;5.15;;;;;;;4.23;79.06;100477.03;5133869;27;20027;-38
2023/12/05 00:33:10;;;;;;;9.00;5.15;;;;;;;4.17;78.39;100474.97;5127446;27;20451;-39
2023/12/05 00:35:35;;;;;;;10.20;5.72;;;;;;;4.16;78.81;100481.22;5113320;28;20019;-39
2023/12/05 00:38:01;;;;;;;9.13;5.35;;;;;;;3.82;80.29;100480.88;5113383;28;20023;-39
2023/12/05 00:40:29;;;;;;;9.10;5.60;;;;;;;4.06;79.39;100478.59;5113407;28;20023;-39
2023/12/05 00:42:56;;;;;;;9.65;5.38;;;;;;;4.17;78.32;100476.75;5113584;28;20020;-39
2023/12/05 00:45:22;;;;;;;8.23;5.43;;;;;;;4.05;79.11;100474.31;5128762;27;20027;-37
2023/12/05 00:47:48;;;;;;;7.95;5.30;;;;;;;4.17;79.10;100460.94;5113169;28;20057;-39
2023/12/05 00:50:13;;;;;;;8.45;5.20;;;;;;;4.27;79.90;100467.03;5112245;28;20051;-39
2023/12/05 00:52:38;;;;;;;9.52;5.57;;;;;;;4.25;79.61;100461.91;5128629;27;20099;-40
2023/12/05 00:55:04;;;;;;;8.23;5.25;;;;;;;4.16;79.13;100454.03;5133708;27;20493;-40
2023/12/05 00:57:30;;;;;;;8.75;5.18;;;;;;;3.85;79.89;100467.44;5133084;27;20413;-39
2023/12/05 00:59:56;;;;;;;9.00;4.97;;;;;;;3.94;78.84;100456.06;5133354;27;20074;-39
2023/12/05 01:02:23;;;;;;;8.55;4.93;;;;;;;3.70;79.20;100457.34;5134067;27;20084;-38
2023/12/05 01:04:48;;;;;;;8.35;5.07;;;;;;;3.63;79.66;100442.25;5134224;27;20035;-38
2023/12/05 01:07:14;;;;;;;11.40;5.22;;;;;;;3.73;80.13;100443.06;5133944;27;20076;-39
2023/12/05 01:09:40;;;;;;;7.78;5.00;;;;;;;3.84;80.57;100424.47;5133753;27;20102;-39
2023/12/05 01:12:07;;;;;;;7.25;4.70;;;;;;;4.06;78.13;100420.66;5133498;27;20046;-39
2023/12/05 01:14:33;;;;;;;8.40;5.00;;;;;;;3.66;78.74;100420.94;5133693;27;20034;-38
2023/12/05 01:16:58;;;;;;;8.52;5.32;;;;;;;3.97;78.88;100412.78;5133527;27;20019;-39
2023/12/05 01:19:24;;;;;;;8.15;4.90;;;;;;;3.97;77.05;100418.06;5114989;27;20027;-39
2023/12/05 01:21:49;;;;;;;8.75;5.30;;;;;;;3.94;78.95;100413.94;5133173;27;20027;-40
2023/12/05 01:24:14;;;;;;;9.25;5.30;;;;;;;3.69;78.03;100410.94;5133722;27;20088;-40
2023/12/05 01:26:40;;;;;;;9.05;4.88;;;;;;;3.64;77.83;100409.72;5133332;27;20023;-40
2023/12/05 01:29:05;;;;;;;7.65;4.80;;;;;;;3.49;79.40;100402.25;5133137;27;20224;-39
2023/12/05 01:31:30;;;;;;;8.85;5.00;;;;;;;3.51;77.78;100404.75;5133819;27;20027;-39
2023/12/05 01:33:56;;;;;;;7.90;5.05;;;;;;;3.71;78.81;100397.63;5122689;27;20328;-38
2023/12/05 01:36:22;;;;;;;8.70;5.35;;;;;;;3.78;76.73;100405.78;5133120;27;20027;-38
2023/12/05 01:38:48;;;;;;;7.35;4.43;;;;;;;3.67;77.26;100396.25;5133473;27;20476;-38
2023/12/05 01:41:13;;;;;;;7.22;4.57;;;;;;;3.70;76.64;100401.25;5133650;27;20475;-38
2023/12/05 01:43:39;;;;;;;6.97;4.75;;;;;;;4.26;75.14;100392.41;5133314;27;20015;-38
2023/12/05 01:46:05;;;;;;;7.07;4.57;;;;;;;4.26;74.92;100383.69;5133214;27;20027;-40
2023/12/05 01:48:33;;;;;;;9.52;5.03;;;;;;;3.72;75.35;100388.75;5133168;27;20019;-38
2023/12/05 01:51:01;;;;;;;8.25;4.70;;;;;;;3.82;74.43;100384.28;5133163;27;20471;-40
2023/12/05 01:53:27;;;;;;;8.40;4.95;;;;;;;3.70;75.39;100373.09;5132873;27;20076;-36
2023/12/05 01:55:53;;;;;;;8.30;4.97;;;;;;;3.85;75.12;100383.19;5132487;27;20055;-38
2023/12/05 01:58:19;;;;;;;9.50;5.43;;;;;;;3.85;74.29;100376.09;5132806;27;20039;-36
2023/12/05 02:00:45;;;;;;;7.90;4.75;;;;;;;3.80;74.76;100375.69;5132790;27;20103;-37
2023/12/05 02:03:10;;;;;;;8.93;4.88;;;;;;;4.15;73.71;100366.28;5133156;27;20386;-40
2023/12/05 02:05:37;;;;;;;7.15;4.90;;;;;;;4.13;72.83;100370.84;5132652;27;20087;-40
2023/12/05 02:08:02;;;;;;;8.45;5.03;;;;;;;4.07;72.83;100371.44;5132784;27;20110;-40
2023/12/05 02:10:28;;;;;;;8.13;4.95;;;;;;;4.04;73.22;100369.94;5132622;27;20101;-39
2023/12/05 02:12:53;;;;;;;8.40;5.28;;;;;;;4.04;72.90;100358.56;5132522;27;20027;-39
2023/12/05 02:15:19;;;;;;;9.10;5.45;;;;;;;4.07;73.02;100363.53;5132344;27;20023;-40
2023/12/05 02:17:55;;;;;;;9.23;5.22;;;;;;;4.39;72.67;100371.00;5132533;27;20034;-37
2023/12/05 02:20:46;;;;;;;9.07;5.60;;;;;;;4.33;72.69;100371.59;5132294;27;20498;-42
2023/12/05 02:23:36;;;;;;;8.40;5.30;;;;;;;4.01;75.04;100370.22;5132393;27;20436;-39
2023/12/05 02:26:09;;;;;;;10.82;5.20;;;;;;;3.82;73.16;100365.84;5132622;27;20108;-37
2023/12/05 02:28:36;;;;;;;9.50;5.25;;;;;;;3.83;73.93;100351.72;5132256;27;20048;-40
2023/12/05 02:31:01;;;;;;;9.18;5.03;;;;;;;4.05;72.69;100353.13;5131899;27;20031;-39
2023/12/05 02:33:27;;;;;;;12.73;6.00;;;;;;;4.16;72.46;100351.31;5132175;27;20023;-40
2023/12/05 02:36:00;;;;;;;10.02;5.18;;;;;;;3.98;73.29;100349.44;5132033;27;20432;-39
2023/12/05 02:38:56;;;;;;;10.43;5.22;;;;;;;3.98;73.79;100346.81;5132087;27;20027;-37
2023/12/05 02:41:28;;;;;;;10.73;5.65;;;;;;;3.99;73.33;100351.09;5132133;27;20152;-39
2023/12/05 02:44:04;;;;;;;8.27;5.28;;;;;;;4.24;72.81;100348.75;5132362;27;20055;-36
2023/12/05 02:46:31;;;;;;;9.02;5.55;;;;;;;4.26;72.45;100352.88;5132035;27;20023;-39
2023/12/05 02:48:57;;;;;;;9.00;5.78;;;;;;;3.98;72.98;100345.97;5132029;27;20084;-40
2023/12/05 02:51:23;;;;;;;10.10;5.57;;;;;;;4.04;72.76;100351.50;5113238;28;20035;-37
2023/12/05 02:53:48;;;;;;;8.73;5.43;;;;;;;3.90;73.95;100341.44;5131848;27;20445;-39
2023/12/05 02:56:13;;;;;;;10.65;5.55;;;;;;;4.12;72.77;100340.22;5131639;27;20047;-38
2023/12/05 02:58:39;;;;;;;12.95;5.85;;;;;;;4.24;72.20;100339.03;5131699;27;20058;-38
2023/12/05 03:01:04;;;;;;;10.75;6.05;;;;;;;4.02;73.08;100336.81;5131464;27;20034;-40
2023/12/05 03:03:30;;;;;;;9.15;5.43;;;;;;;4.10;73.24;100323.75;5131709;27;20092;-37
2023/12/05 03:05:55;;;;;;;9.75;5.70;;;;;;;4.16;72.29;100328.41;5131685;27;20054;-40
2023/12/05 03:08:20;;;;;;;9.00;5.60;;;;;;;4.26;72.92;100321.25;5131826;27;20019;-40
2023/12/05 03:10:46;;;;;;;9.60;5.72;;;;;;;3.89;73.35;100292.38;5132223;28;20049;-36
2023/12/05 03:13:11;;;;;;;8.95;5.40;;;;;;;3.83;74.22;100316.69;5131550;27;20051;-37
2023/12/05 03:15:37;;;;;;;10.80;5.82;;;;;;;4.17;72.89;100316.06;5131244;28;20383;-39
2023/12/05 03:18:02;;;;;;;10.85;5.72;;;;;;;3.97;74.21;100318.00;5131663;28;20077;-39
2023/12/05 03:20:27;;;;;;;9.02;5.53;;;;;;;4.29;73.56;100307.81;5131501;28;20024;-25
2023/12/05 03:22:53;;;;;;;10.10;5.85;;;;;;;4.19;73.74;100308.84;5131561;28;20023;-25
2023/12/05 03:25:18;;;;;;;10.55;5.95;;;;;;;4.28;73.63;100315.84;5131699;28;20031;-24
2023/12/05 03:27:43;;;;;;;11.85;6.35;;;;;;;4.58;71.44;100316.50;5131700;28;20083;-26
2023/12/05 03:30:09;;;;;;;10.38;5.93;;;;;;;4.46;71.12;100324.63;5131204;28;20038;-26
2023/12/05 03:32:35;;;;;;;11.00;5.95;;;;;;;4.54;72.88;100325.69;5131369;28;20024;-26
2023/12/05 03:35:00;;;;;;;9.77;5.93;;;;;;;4.54;72.10;100325.69;5131888;28;20114;-26
2023/12/05 03:37:25;;;;;;;12.15;6.20;;;;;;;4.37;73.70;100329.97;5131314;27;20027;-26
2023/12/05 03:39:51;;;;;;;11.20;6.20;;;;;;;4.46;72.91;100329.88;5131440;28;20505;-26
2023/12/05 03:42:16;;;;;;;13.65;6.88;;;;;;;4.24;74.54;100332.94;5131357;28;20501;-26
2023/12/05 03:44:41;;;;;;;12.05;6.70;;;;;;;4.52;74.19;100328.47;5131247;28;20027;-26
2023/12/05 03:47:07;;;;;;;12.07;6.68;;;;;;;4.39;73.99;100331.47;5131377;28;20436;-26
2023/12/05 03:49:33;;;;;;;12.63;6.47;;;;;;;4.18;75.61;100334.34;5131041;28;20092;-26
2023/12/05 03:52:01;;;;;;;14.20;7.00;;;;;;;4.26;74.75;100333.63;5131678;28;20027;-26
2023/12/05 03:54:26;;;;;;;13.52;6.32;;;;;;;4.36;75.22;100323.88;5131341;28;20027;-26
2023/12/05 03:56:51;;;;;;;12.55;6.50;;;;;;;4.41;73.79;100332.13;5131374;28;20038;-26
2023/12/05 03:59:17;;;;;;;11.75;6.68;;;;;;;4.37;75.58;100324.69;5131075;28;20427;-26
2023/12/05 04:01:42;;;;;;;15.32;7.18;;;;;;;4.46;76.03;100323.78;5131330;28;20027;-26
2023/12/05 04:04:07;;;;;;;15.07;7.60;;;;;;;4.55;74.94;100325.53;5131275;28;20041;-26
2023/12/05 04:06:33;;;;;;;13.77;7.53;;;;;;;4.50;76.16;100327.78;5130952;28;20027;-26
2023/12/05 04:08:58;;;;;;;19.50;9.77;;;;;;;4.53;75.16;100337.19;5130877;28;20049;-25
2023/12/05 04:11:31;;;;;;;18.52;8.30;;;;;;;4.50;76.08;100330.41;5130984;28;20058;-26
2023/12/05 04:14:00;;;;;;;18.13;9.15;;;;;;;4.64;75.49;100332.53;5130888;28;20030;-26
2023/12/05 04:16:26;;;;;;;19.13;8.55;;;;;;;5.00;73.95;100332.50;5131411;28;20023;-26
2023/12/05 04:18:52;;;;;;;18.05;9.18;;;;;;;4.92;73.40;100331.63;5131497;28;20080;-25
2023/12/05 04:21:18;;;;;;;19.05;8.88;;;;;;;4.84;74.87;100327.13;5131137;28;20494;-26
2023/12/05 04:23:44;;;;;;;18.92;8.80;;;;;;;4.63;75.27;100325.59;5131143;27;20046;-27
2023/12/05 04:26:16;;;;;;;19.33;9.27;;;;;;;4.72;75.63;100317.75;5134023;27;20030;-27
2023/12/05 04:28:42;;;;;;;18.10;9.65;;;;;;;4.81;75.44;100317.69;5134776;27;20031;-27
2023/12/05 04:31:07;;;;;;;16.67;8.75;;;;;;;5.00;74.74;100316.69;5134757;27;20031;-27
2023/12/05 04:33:32;;;;;;;19.20;9.38;;;;;;;4.85;75.32;100305.03;5128489;27;20024;-27
2023/12/05 04:35:58;;;;;;;19.05;9.27;;;;;;;4.73;76.29;100307.06;5113882;28;20027;-25
2023/12/05 04:38:23;;;;;;;20.23;8.75;;;;;;;4.68;77.24;100304.03;5114164;28;20032;-25
2023/12/05 04:40:48;;;;;;;21.48;8.80;;;;;;;4.44;76.77;100315.22;5113766;28;20159;-24
2023/12/05 04:43:14;;;;;;;19.38;8.80;;;;;;;4.60;77.58;100311.91;5113712;28;20417;-25
2023/12/05 04:45:40;;;;;;;17.75;8.88;;;;;;;4.47;78.27;100294.66;5113951;28;20026;-25
2023/12/05 04:48:05;;;;;;;17.63;9.20;;;;;;;4.55;76.92;100312.34;5114008;28;20460;-25
2023/12/05 04:50:30;;;;;;;19.55;10.00;;;;;;;4.57;77.18;100310.41;5113817;28;20458;-26
2023/12/05 04:52:56;;;;;;;20.25;9.55;;;;;;;4.39;79.07;100306.91;5113581;28;20092;-26
2023/12/05 04:55:21;;;;;;;22.77;10.18;;;;;;;4.29;78.65;100304.34;5113470;28;20073;-26
2023/12/05 04:57:46;;;;;;;18.73;9.15;;;;;;;4.54;76.89;100321.22;5117320;27;20519;-27
2023/12/05 05:00:13;;;;;;;19.10;8.55;;;;;;;4.67;77.03;100319.03;5134173;27;20027;-26
2023/12/05 05:02:38;;;;;;;16.35;8.80;;;;;;;4.74;75.30;100316.66;5134652;27;20031;-28
2023/12/05 05:05:04;;;;;;;16.98;9.10;;;;;;;4.71;75.11;100314.31;5134425;27;20016;-25
2023/12/05 05:07:29;;;;;;;19.27;9.00;;;;;;;4.68;74.97;100312.81;5134128;27;20447;-27
2023/12/05 05:09:55;;;;;;;20.95;10.15;;;;;;;4.30;77.67;100304.22;5134051;27;20027;-26
2023/12/05 05:12:20;;;;;;;19.38;9.90;;;;;;;4.25;78.17;100298.53;5134147;27;20054;-27
2023/12/05 05:14:45;;;;;;;21.55;10.27;;;;;;;4.20;78.34;100302.59;5134133;27;20103;-28
2023/12/05 05:17:11;;;;;;;19.38;10.25;;;;;;;3.97;79.90;100302.19;5134222;27;20019;-27
2023/12/05 05:19:36;;;;;;;20.50;9.57;;;;;;;4.09;79.33;100303.63;5134034;27;20027;-27
2023/12/05 05:22:01;;;;;;;18.90;10.27;;;;;;;3.87;80.05;100286.44;5133387;27;20109;-27
2023/12/05 05:24:27;;;;;;;25.42;10.77;;;;;;;4.16;80.48;100293.34;5132516;27;20030;-26
2023/12/05 05:26:53;;;;;;;22.40;10.82;;;;;;;4.37;79.94;100291.25;5121731;27;20112;-27
2023/12/05 05:29:19;;;;;;;26.30;10.93;;;;;;;4.96;86.28;100291.59;5133365;27;20531;-26
2023/12/05 05:31:44;;;;;;;21.77;10.48;;;;;;;5.78;84.44;100289.41;5121304;27;20114;-27
2023/12/05 05:34:09;;;;;;;23.05;10.38;;;;;;;6.63;78.35;100291.16;5125942;27;20019;-26
2023/12/05 05:36:35;;;;;;;23.13;10.70;;;;;;;6.80;77.57;100286.69;5125404;27;20072;-25
2023/12/05 05:39:00;;;;;;;26.13;11.65;;;;;;;6.76;78.45;100286.19;5133567;27;20098;-26
2023/12/05 05:41:26;;;;;;;22.70;10.25;;;;;;;6.78;74.30;100273.63;5145343;27;20023;-27
2023/12/05 05:43:51;;;;;;;20.73;9.90;;;;;;;7.29;72.08;100286.66;5136019;27;20034;-27
2023/12/05 05:46:17;;;;;;;24.20;11.00;;;;;;;7.54;67.74;100273.31;5137779;27;20027;-26
2023/12/05 05:48:43;;;;;;;19.48;9.85;;;;;;;7.47;66.98;100272.38;5133720;27;20027;-27
2023/12/05 05:51:08;;;;;;;23.60;11.10;;;;;;;7.64;66.27;100266.00;5133663;27;20044;-27
2023/12/05 05:53:34;;;;;;;21.73;10.68;;;;;;;7.63;66.18;100267.00;5133022;27;20081;-26
2023/12/05 05:56:00;;;;;;;26.73;13.38;;;;;;;7.12;72.62;100267.31;5133068;27;20055;-27
2023/12/05 05:58:26;;;;;;;22.50;11.00;;;;;;;7.23;69.21;100266.13;5114299;27;20391;-27
2023/12/05 06:00:51;;;;;;;20.75;10.23;;;;;;;6.15;71.33;100267.13;5137174;27;20071;-27
2023/12/05 06:03:17;;;;;;;21.95;11.43;;;;;;;5.49;73.72;100269.50;5146509;27;20046;-29
2023/12/05 06:05:42;;;;;;;25.15;11.68;;;;;;;5.76;73.39;100266.81;5142390;27;20101;-27
2023/12/05 06:08:07;;;;;;;24.15;11.05;;;;;;;5.34;74.64;100271.06;5134089;27;20033;-26
2023/12/05 06:10:35;;;;;;;22.08;10.90;;;;;;;4.95;76.43;100266.22;5133377;27;20447;-27
2023/12/05 06:13:00;;;;;;;22.02;10.88;;;;;;;5.14;76.26;100270.47;5136662;27;20432;-27
2023/12/05 06:15:26;;;;;;;23.27;11.60;;;;;;;5.38;75.50;100275.03;5130007;27;20030;-28
2023/12/05 06:17:51;;;;;;;23.92;11.18;;;;;;;5.94;73.44;100261.41;5130387;27;20054;-26
2023/12/05 06:20:17;;;;;;;22.33;10.90;;;;;;;5.05;75.99;100264.28;5132525;27;20034;-26
2023/12/05 06:22:42;;;;;;;22.10;10.77;;;;;;;5.76;80.42;100259.69;5133306;27;20171;-26
2023/12/05 06:25:08;;;;;;;21.98;10.65;;;;;;;6.26;74.08;100272.09;5133349;27;20086;-27
2023/12/05 06:27:33;;;;;;;18.88;10.40;;;;;;;5.91;72.79;100277.59;5132805;27;20026;-28
2023/12/05 06:29:59;;;;;;;21.58;10.45;;;;;;;5.31;75.30;100279.28;5132925;27;20022;-28
2023/12/05 06:32:24;;;;;;;23.20;10.88;;;;;;;5.17;76.88;100287.78;5132563;27;20015;-28
2023/12/05 06:34:49;;;;;;;23.60;10.35;;;;;;;5.27;76.59;100291.13;5132901;27;20102;-27
2023/12/05 06:37:15;;;;;;;23.90;12.10;;;;;;;5.63;74.96;100294.47;5131879;27;20046;-27
2023/12/05 06:39:40;;;;;;;25.98;13.48;;;;;;;5.61;75.02;100291.16;5132637;27;20051;-28
2023/12/05 06:42:05;;;;;;;24.83;12.52;;;;;;;5.79;75.48;100285.81;5133204;27;20027;-28
2023/12/05 06:44:31;;;;;;;25.25;12.50;;;;;;;5.47;75.70;100308.41;5126657;27;20102;-28
2023/12/05 06:46:56;;;;;;;22.67;12.18;;;;;;;5.81;76.66;100302.31;5111528;28;20430;-27
2023/12/05 06:49:22;;;;;;;26.42;11.80;;;;;;;6.57;73.34;100289.19;5112155;28;20035;-27
2023/12/05 06:51:55;;;;;;;25.13;12.10;;;;;;;6.43;70.78;100283.50;5112367;28;20023;-26
2023/12/05 06:54:21;;;;;;;25.30;11.65;;;;;;;5.86;72.16;100286.84;5112338;28;20028;-28
2023/12/05 06:56:47;;;;;;;25.02;11.82;;;;;;;5.45;74.25;100286.63;5111539;28;20118;-29
2023/12/05 06:59:13;;;;;;;25.23;11.68;;;;;;;5.38;75.76;100290.06;5127079;27;20110;-27
2023/12/05 07:01:39;;;;;;;25.83;11.98;;;;;;;6.16;72.99;100281.97;5131790;27;20443;-26
2023/12/05 07:04:04;;;;;;;22.30;11.25;;;;;;;6.19;71.72;100286.13;5131477;27;20058;-27
2023/12/05 07:06:30;;;;;;;25.85;12.02;;;;;;;5.92;72.19;100282.72;5131594;27;20026;-27
2023/12/05 07:08:56;;;;;;;25.48;11.95;;;;;;;5.47;76.68;100282.03;5131785;27;20475;-27
2023/12/05 07:11:25;;;;;;;22.10;12.13;;;;;;;5.47;76.53;100289.13;5132223;28;20024;-28
2023/12/05 07:13:50;;;;;;;28.15;14.25;;;;;;;6.00;74.69;100292.53;5132000;28;20019;-26
2023/12/05 07:16:16;;;;;;;27.15;13.48;;;;;;;5.81;74.12;100283.84;5131665;28;20564;-27
2023/12/05 07:18:41;;;;;;;28.70;12.50;;;;;;;6.06;73.53;100289.22;5131342;28;20088;-27
2023/12/05 07:21:08;;;;;;;32.17;12.80;;;;;;;5.86;73.62;100283.34;5130807;28;20050;-27
2023/12/05 07:23:33;;;;;;;29.00;13.32;;;;;;;5.65;75.55;100284.59;5131519;28;20070;-28
2023/12/05 07:25:59;;;;;;;33.22;14.32;;;;;;;5.66;75.74;100283.59;5131593;28;20424;-27
2023/12/05 07:28:24;;;;;;;27.75;13.38;;;;;;;5.84;74.94;100283.50;5129741;28;20379;-27
2023/12/05 07:30:49;;;;;;;26.38;13.90;;;;;;;5.66;76.41;100286.25;5129282;28;20023;-27
2023/12/05 07:33:15;;;;;;;27.25;13.75;;;;;;;5.83;75.00;100283.69;5129432;28;20027;-28
2023/12/05 07:35:40;;;;;;;29.15;14.25;;;;;;;6.04;73.53;100280.63;5130006;28;20051;-27
2023/12/05 07:38:06;;;;;;;25.95;13.48;;;;;;;5.67;74.47;100281.78;5129876;28;20027;-28
2023/12/05 07:40:32;;;;;;;26.77;14.18;;;;;;;5.55;75.03;100285.69;5129884;28;20494;-28
2023/12/05 07:42:57;;;;;;;20.60;11.65;;;;;;;5.62;74.85;100286.72;5130311;28;20403;-28
2023/12/05 07:45:23;;;;;;;21.63;11.35;;;;;;;5.73;73.67;100273.25;5131968;28;20053;-28
2023/12/05 07:47:48;;;;;;;24.50;13.07;;;;;;;6.16;72.42;100276.69;5131203;28;20589;-27
2023/12/05 07:50:13;;;;;;;21.95;12.93;;;;;;;5.91;72.19;100259.91;5131269;28;20015;-28
2023/12/05 07:52:39;;;;;;;20.23;11.02;;;;;;;5.87;72.94;100263.88;5131087;28;20015;-28
2023/12/05 07:55:05;;;;;;;21.25;11.25;;;;;;;5.91;73.33;100253.81;5131283;28;20058;-26
2023/12/05 07:57:30;;;;;;;17.98;10.45;;;;;;;6.03;72.27;100249.91;5131094;28;20023;-28
2023/12/05 07:59:56;;;;;;;19.33;10.75;;;;;;;6.01;73.38;100246.59;5134475;27;20404;-27
2023/12/05 08:02:21;;;;;;;20.83;10.48;;;;;;;5.91;72.89;100240.59;5134950;27;20403;-28
2023/12/05 08:04:47;;;;;;;22.67;10.98;;;;;;;6.02;71.82;100242.97;5135287;27;20091;-27
2023/12/05 08:07:12;;;;;;;23.40;11.73;;;;;;;6.14;71.49;100239.03;5135371;27;20436;-27
2023/12/05 08:09:38;;;;;;;20.30;10.95;;;;;;;6.07;71.24;100240.66;5135031;27;20507;-30
2023/12/05 08:12:04;;;;;;;19.90;10.88;;;;;;;6.16;71.42;100247.63;5134899;27;20015;-27
2023/12/05 08:14:30;;;;;;;21.55;11.35;;;;;;;6.06;71.36;100245.13;5134778;27;20470;-28
2023/12/05 08:16:55;;;;;;;21.27;11.82;;;;;;;6.37;71.10;100241.06;5135126;27;20027;-27
2023/12/05 08:19:20;;;;;;;20.80;11.13;;;;;;;6.72;69.92;100250.50;5134913;27;20460;-27
2023/12/05 08:21:46;;;;;;;19.38;10.77;;;;;;;6.70;69.76;100236.63;5135155;27;20114;-27
2023/12/05 08:24:11;;;;;;;21.23;11.80;;;;;;;7.03;67.77;100231.28;5134987;27;20047;-28
2023/12/05 08:26:37;;;;;;;23.08;11.68;;;;;;;7.00;67.56;100232.41;5134742;27;20054;-28
2023/12/05 08:29:02;;;;;;;23.45;11.77;;;;;;;6.87;68.51;100216.22;5134746;27;20023;-27
2023/12/05 08:31:28;;;;;;;20.95;11.27;;;;;;;6.73;69.54;100214.28;5134499;27;20027;-27
2023/12/05 08:33:53;;;;;;;22.17;11.43;;;;;;;6.76;70.08;100216.56;5134654;27;20471;-27
2023/12/05 08:36:19;;;;;;;22.75;11.32;;;;;;;6.74;69.74;100215.91;5134554;27;20079;-28
2023/12/05 08:38:44;;;;;;;23.60;12.13;;;;;;;7.35;67.60;100217.13;5134213;27;20027;-28
2023/12/05 08:41:16;;;;;;;21.90;12.02;;;;;;;7.49;65.52;100209.47;5134526;27;20041;-27
2023/12/05 08:43:41;;;;;;;24.65;11.43;;;;;;;7.59;66.03;100218.84;5134323;27;20027;-27
2023/12/05 08:46:07;;;;;;;20.67;11.55;;;;;;;7.23;66.99;100205.25;5134284;27;20517;-27
2023/12/05 08:48:32;;;;;;;22.38;12.13;;;;;;;7.26;67.67;100206.75;5134295;27;20062;-27
2023/12/05 08:50:58;;;;;;;21.95;11.13;;;;;;;7.19;67.88;100210.03;5134190;27;20563;-27
2023/12/05 08:53:23;;;;;;;23.38;11.60;;;;;;;7.82;66.30;100210.13;5134458;27;20039;-29
2023/12/05 08:55:49;;;;;;;24.50;11.38;;;;;;;7.89;63.92;100212.91;5133936;27;20051;-26
2023/12/05 08:58:14;;;;;;;20.73;11.48;;;;;;;7.85;64.33;100198.38;5126847;27;20068;-27
2023/12/05 09:00:39;;;;;;;21.58;11.98;;;;;;;7.50;65.98;100203.16;5113842;28;20087;-27
2023/12/05 09:03:05;;;;;;;22.50;11.57;;;;;;;7.33;67.18;100197.94;5113657;28;20023;-28
2023/12/05 09:05:30;;;;;;;20.70;11.27;;;;;;;7.46;67.29;100196.56;5113650;28;20403;-30
2023/12/05 09:07:56;;;;;;;22.13;12.02;;;;;;;8.34;64.66;100200.66;5113742;28;20394;-27
2023/12/05 09:10:22;;;;;;;22.08;11.38;;;;;;;8.17;64.62;100184.91;5112774;28;20511;-30
2023/12/05 09:12:47;;;;;;;22.15;11.27;;;;;;;7.92;65.25;100180.75;5113421;28;20023;-27
2023/12/05 09:15:12;;;;;;;21.60;11.10;;;;;;;8.08;63.64;100177.19;5113336;28;20100;-28
2023/12/05 09:17:38;;;;;;;23.38;11.45;;;;;;;7.77;64.61;100170.09;5113155;28;20495;-28
2023/12/05 09:20:04;;;;;;;24.65;10.93;;;;;;;7.84;65.24;100171.03;5113291;28;20023;-28
2023/12/05 09:22:29;;;;;;;24.55;11.57;;;;;;;8.46;63.04;100175.41;5113418;28;20034;-27
2023/12/05 09:24:54;;;;;;;21.40;12.25;;;;;;;8.21;63.55;100169.47;5113183;28;20042;-27
2023/12/05 09:27:20;;;;;;;24.83;12.13;;;;;;;8.35;63.90;100159.91;5113092;28;20107;-27
2023/12/05 09:29:46;;;;;;;22.23;11.98;;;;;;;8.34;64.32;100151.13;5113170;28;20066;-27
2023/12/05 09:32:11;;;;;;;23.00;12.15;;;;;;;8.12;64.62;100150.13;5113528;28;20030;-28
2023/12/05 09:34:36;;;;;;;22.95;12.15;;;;;;;8.40;64.55;100157.53;5112862;28;20019;-28
2023/12/05 09:37:02;;;;;;;20.15;11.10;;;;;;;9.52;62.13;100156.66;5112649;28;20384;-27
2023/12/05 09:39:29;;;;;;;21.13;11.68;;;;;;;9.32;60.50;100148.47;5113125;28;20024;-27
2023/12/05 09:41:57;;;;;;;24.58;12.10;;;;;;;8.76;61.64;100146.28;5113129;28;20039;-27
2023/12/05 09:44:25;;;;;;;24.13;11.43;;;;;;;8.59;62.38;100133.19;5112793;28;20098;-28
2023/12/05 09:46:54;;;;;;;22.58;13.02;;;;;;;8.49;64.10;100129.97;5112944;28;20097;-27
2023/12/05 09:49:25;;;;;;;25.13;12.70;;;;;;;8.70;63.40;100123.97;5112983;28;20085;-27
2023/12/05 09:51:51;;;;;;;22.75;13.25;;;;;;;8.91;61.36;100107.31;5112555;28;20396;-28
2023/12/05 09:54:16;;;;;;;25.38;13.60;;;;;;;8.18;63.87;100109.63;5112690;28;20467;-27
2023/12/05 09:56:42;;;;;;;24.40;12.98;;;;;;;8.12;63.70;100104.25;5112540;28;20408;-27
2023/12/05 09:59:10;;;;;;;26.83;13.27;;;;;;;8.31;63.85;100103.75;5125090;27;20031;-27
2023/12/05 10:01:36;;;;;;;24.33;12.23;;;;;;;8.19;64.21;100094.59;5132960;27;20023;-29
2023/12/05 10:04:02;;;;;;;28.95;13.98;;;;;;;8.37;63.78;100088.94;5133179;27;20076;-29
2023/12/05 10:06:29;;;;;;;28.45;14.82;;;;;;;8.26;63.17;100084.06;5132756;27;20123;-27
2023/12/05 10:08:56;;;;;;;31.45;15.63;;;;;;;8.79;63.33;100072.44;5132831;27;20046;-27
2023/12/05 10:11:25;;;;;;;28.92;14.95;;;;;;;8.51;63.35;100077.56;5132947;27;20031;-28
2023/12/05 10:13:51;;;;;;;28.27;16.17;;;;;;;8.57;63.58;100065.41;5133167;27;20091;-28
2023/12/05 10:16:17;;;;;;;33.78;17.25;;;;;;;8.53;64.07;100059.63;5132841;27;20031;-28
2023/12/05 10:18:44;;;;;;;31.98;17.27;;;;;;;8.91;61.48;100056.03;5132429;27;20034;-27
2023/12/05 10:21:10;;;;;;;33.63;17.17;;;;;;;8.57;63.30;100054.78;5133079;27;20487;-28
2023/12/05 10:23:35;;;;;;;34.95;18.48;;;;;;;8.08;64.77;100064.00;5132467;27;20027;-28
2023/12/05 10:26:00;;;;;;;32.88;17.65;;;;;;;8.19;65.77;100055.63;5132760;27;20037;-27
2023/12/05 10:28:26;;;;;;;32.28;17.48;;;;;;;8.80;62.78;100044.91;5132488;27;20031;-27
2023/12/05 10:30:51;;;;;;;31.73;16.95;;;;;;;8.50;63.68;100038.78;5132281;27;20030;-25
2023/12/05 10:33:18;;;;;;;34.13;16.92;;;;;;;8.51;64.01;100043.09;5132466;27;20027;-28
2023/12/05 10:35:45;;;;;;;31.58;18.27;;;;;;;8.58;64.22;100041.31;5132097;27;20034;-27
2023/12/05 10:38:13;;;;;;;39.05;18.67;;;;;;;8.48;63.93;100032.81;5131924;27;20106;-30
2023/12/05 10:41:08;;;;;;;32.85;17.67;;;;;;;8.53;63.46;100038.41;5132222;27;20520;-28
2023/12/05 10:43:33;;;;;;;33.63;17.77;;;;;;;8.31;64.65;100034.78;5110332;27;20566;-29
2023/12/05 10:46:03;;;;;;;28.80;14.15;;;;;;;7.41;67.86;100031.09;5132238;27;20102;-28
2023/12/05 10:48:28;;;;;;;;;;;;;;;7.70;66.86;100021.59;5132512;27;20015;-28
2023/12/05 10:50:56;;;;;;;25.88;12.77;;;;;;;7.43;68.56;100020.31;5132068;27;20005;-27
2023/12/05 10:53:21;;;;;;;24.27;12.20;;;;;;;7.12;69.65;100020.34;5132327;27;20493;-27
2023/12/05 10:55:47;;;;;;;27.30;13.48;;;;;;;6.95;70.76;100012.50;5132301;27;20043;-29
2023/12/05 10:58:14;;;;;;;26.02;12.95;;;;;;;6.97;70.52;100012.34;5132091;27;20414;-27
2023/12/05 11:00:40;;;;;;;30.00;13.35;;;;;;;7.52;68.78;100016.63;5132044;27;20031;-27
2023/12/05 11:03:06;;;;;;;25.95;13.38;;;;;;;7.19;69.67;100000.94;5131932;27;20452;-27
2023/12/05 11:05:33;;;;;;;28.65;13.00;;;;;;;7.07;69.96;99990.94;5132276;27;20023;-28
2023/12/05 11:08:00;;;;;;;23.17;13.07;;;;;;;6.99;70.71;99995.28;5131841;27;20399;-27
2023/12/05 11:10:27;;;;;;;24.23;12.70;;;;;;;6.81;71.26;99990.22;5131707;27;20027;-27
2023/12/05 11:12:54;;;;;;;27.92;13.05;;;;;;;7.24;70.13;99995.13;5132022;27;20102;-29
2023/12/05 11:15:34;;;;;;;26.05;12.43;;;;;;;7.00;70.88;99986.31;5132083;28;20023;-27
2023/12/05 11:18:05;;;;;;;26.02;12.95;;;;;;;6.78;71.72;99981.84;5132261;28;20046;-30
2023/12/05 11:21:00;;;;;;;25.13;12.20;;;;;;;6.78;71.60;99979.19;5132260;28;20023;-28